KIPT/IPT METAR and TAF weather

Enter ICAO airport designator
Station Type Date Time Source
KIPT METAR 2019/02/17 14:54 UTC NOAA

KIPT 171454Z 14004KT 10SM CLR M03/M09 A3011 RMK AO2 SLP204 T10331094 58005


Station Type Date Time Source
KIPT Decoded METAR 2019/02/17 14:54 UTC NOAA

WILLIAMSPORT-LYCOMING COUNTY, PA, United States (KIPT) 41-15N 076-55W 164M
Feb 17, 2019 - 09:54 AM EST / 2019.02.17 1454 UTC
Wind: from the SE (140 degrees) at 5 MPH (4 KT):0
Visibility: 10 mile(s):0
Sky conditions: clear
Temperature: 26.1 F (-3.3 C)
Windchill: 19 F (-7 C):1
Dew Point: 15.1 F (-9.4 C)
Relative Humidity: 62%
Pressure (altimeter): 30.11 in. Hg (1019 hPa)
Pressure tendency: 0.01 inches (0.5 hPa) lower than three hours ago
ob: KIPT 171454Z 14004KT 10SM CLR M03/M09 A3011 RMK AO2 SLP204 T10331094 58005
cycle: 15

Station Type Date Time Source
KIPT TAF 2019/02/17 12:54 UTC NOAA

TAF KIPT 171152Z 1712/1812 VRB02KT P6SM SKC
FM172300 09006KT 6SM -SN OVC030


Example: see airport list